La Salle, Canada
Current Conditions -  °F | °C
As of 12:00 AM on Sunday 23 Nov 2014 (Local Time) from CYWG Reporting Station
Broken Clouds Broken Clouds  
Wind Chill: 24°   Ceiling: 15000
Heat Index: 34°   Visibility: 15mi
Dew Point: 30°   Wind: 15mph
Humidity: 87%   Direction: 130°SE
Pressure: 29.31"   Gusts: 22mph
Location:  49.68°N, 97.27°W
Report Text: CYWG 230600Z 13013G19KT 15SM BKN150 01/M01 A2931 RMK AC7 SLP938
Loading
Personal Weather Stations






























Interactive Weather Map New forecast layout! Learn more

10-Day Weather Forecast

Advertisements
Track Severe Weather on mobile